Wetterdaten: aktuell Mittwoch, 06.07.2022 08:50
Datum Zeit Innen Temp. A. Schlaf Luftf.innen Feuchte A. Feuchte 2 Luftdruck Regen Wind
06.07.2022 08:50 25,8 C 21,8 C 23,8 C 54 % 65 % 60 % 1017,0 hPa 0,0 mm 0,0 km/h
06.07.2022 07:50 25,2 C 18,5 C 23,4 C 56 % 80 % 60 % 1017,5 hPa 0,0 mm 0,0 km/h
06.07.2022 06:50 25,2 C 17,0 C 23,1 C 56 % 86 % 60 % 1017,7 hPa 0,0 mm 0,0 km/h
06.07.2022 05:50 25,1 C 15,4 C 22,9 C 56 % 89 % 61 % 1017,9 hPa 0,0 mm 0,0 km/h
06.07.2022 04:50 25,0 C 15,6 C 22,2 C 56 % 86 % 62 % 1017,9 hPa 0,0 mm 0,0 km/h
06.07.2022 03:50 25,1 C 16,3 C 21,7 C 55 % 85 % 61 % 1017,8 hPa 0,0 mm 0,0 km/h
06.07.2022 02:50 25,2 C 16,0 C 21,9 C 54 % 85 % 61 % 1017,9 hPa 0,0 mm 0,0 km/h
06.07.2022 01:50 25,4 C 15,9 C 22,2 C 54 % 85 % 60 % 1017,9 hPa 0,0 mm 0,0 km/h
06.07.2022 00:50 25,7 C 16,7 C 22,7 C 53 % 81 % 59 % 1017,8 hPa 0,0 mm 0,0 km/h
05.07.2022 23:50 26,0 C 17,5 C 23,2 C 53 % 78 % 59 % 1017,6 hPa 0,0 mm 0,0 km/h
05.07.2022 22:50 26,3 C 18,8 C 23,8 C 51 % 74 % 58 % 1016,4 hPa 0,0 mm 0,0 km/h
05.07.2022 21:50 26,4 C 20,4 C 24,5 C 50 % 65 % 58 % 1016,2 hPa 0,0 mm 1,6 km/h
05.07.2022 20:50 26,7 C 22,1 C 25,2 C 49 % 59 % 59 % 1016,0 hPa 0,0 mm 0,0 km/h
05.07.2022 19:50 26,8 C 24,4 C 25,2 C 49 % 49 % 59 % 1015,7 hPa 0,0 mm 0,0 km/h
05.07.2022 18:50 27,0 C 25,6 C 25,2 C 52 % 54 % 59 % 1014,4 hPa 0,0 mm 1,6 km/h
05.07.2022 17:50 26,7 C 26,8 C 25,2 C 49 % 47 % 58 % 1014,3 hPa 0,0 mm 0,2 km/h
05.07.2022 16:50 26,8 C 27,4 C 25,2 C 51 % 46 % 59 % 1014,2 hPa 0,0 mm 3,8 km/h
05.07.2022 15:50 26,4 C 27,4 C 25,0 C 53 % 50 % 61 % 1014,2 hPa 0,0 mm 0,2 km/h
05.07.2022 14:50 26,4 C 26,0 C 24,9 C 55 % 52 % 62 % 1014,4 hPa 0,0 mm 8,6 km/h
05.07.2022 13:50 26,1 C 24,4 C 24,8 C 56 % 58 % 62 % 1015,7 hPa 0,0 mm 2,5 km/h
05.07.2022 12:50 26,2 C 24,0 C 24,6 C 60 % 65 % 63 % 1015,7 hPa 0,0 mm 0,0 km/h
05.07.2022 11:50 26,3 C 24,4 C 24,6 C 62 % 66 % 65 % 1015,7 hPa 0,0 mm 0,0 km/h
05.07.2022 10:50 25,9 C 23,1 C 24,4 C 65 % 78 % 66 % 1014,8 hPa 0,0 mm 0,0 km/h
05.07.2022 09:50 25,6 C 21,2 C 24,0 C 65 % 85 % 66 % 1016,1 hPa 0,0 mm 0,0 km/h
05.07.2022 09:00 25,4 C 19,8 C 23,5 C 64 % 90 % 66 % 1015,2 hPa 0,0 mm 0,0 km/h
_ Min-Zeit 04:25 05:40 04:25 17:30 17:00 17:20 18:10 - 09:00
Minimum _ 24,9 C 15,2 C 21,6 C 49 % 45 % 58 % 1013,3 hPa - 0,0 km/h
_ Max-Zeit 18:45 17:25 16:50 09:05 09:00 09:00 05:40 09:00 14:50
Maximum _ 27,0 C 27,8 C 25,2 C 65 % 90 % 66 % 1018,0 hPa 0,0 mm 8,6 km/h
N
Durchschnitt _ 25,9 C 20,9 C 23,9 C 56 % 71 % 61 % 1016,1 hPa #0,0 mm 0,5 km/h